Terminal Aerodrome Forecast
Issued by NWS

Home | Current Version | Previous Version | Text Only | Print | Product List | Glossary On
Versions: 1 2 3 4 5 6 7 8 9 10 11 12 13 14 15 16 17 18 19 20 21 22 23 24 25 26 27 28 29 30
512
FTUS41 KOKX 191139
TAFHPN
TAF
KHPN 191139Z 1912/2012 31005KT P6SM SCT050 BKN250
     FM191500 28005KT P6SM SCT025 SCT060
     FM191800 25009KT P6SM SCT045
     FM200300 VRB04KT P6SM FEW250
      AMD NOT SKED=

USA.gov is the U.S. government's official web portal to all federal, state and local government web resources and services.